Time;durP1;ratioP1;P1;durP2;ratioP2;P2;SDS_P1;SDS_P2;PMS_P1;PMS_P2;Temp;Humidity;BMP_temperature;BMP_pressure;BME280_temperature;BME280_humidity;BME280_pressure;Samples;Min_cycle;Max_cycle;Signal;HPM_P1;HPM_P2
2021/10/02 00:35:36;;;;;;;6.35;4.00;;;13.20;83.60;;;;;;4862861;29;20037;-86
2021/10/02 00:46:03;;;;;;;5.57;3.75;;;13.10;84.00;;;;;;4865209;29;20113;-86
2021/10/02 00:48:29;;;;;;;10.82;4.20;;;13.10;84.20;;;;;;4862968;29;20410;-87
2021/10/02 00:50:59;;;;;;;5.53;4.15;;;13.10;84.30;;;;;;4862700;29;20026;-86
2021/10/02 00:53:24;;;;;;;5.75;3.95;;;13.10;84.40;;;;;;4860400;29;20030;-87
2021/10/02 00:55:50;;;;;;;5.57;4.07;;;13.00;84.40;;;;;;4863611;29;20043;-86
2021/10/02 00:58:17;;;;;;;8.07;4.22;;;13.00;85.10;;;;;;4862885;29;20166;-85
2021/10/02 01:00:46;;;;;;;6.18;4.05;;;13.10;84.70;;;;;;4864270;29;20026;-87
2021/10/02 01:03:24;;;;;;;5.93;4.05;;;13.10;84.80;;;;;;4863521;29;20049;-89
2021/10/02 01:06:33;;;;;;;4.93;4.03;;;13.10;84.80;;;;;;4862120;29;20030;-87
2021/10/02 01:09:18;;;;;;;5.95;4.25;;;13.10;85.10;;;;;;4849046;29;20049;-87
2021/10/02 01:11:52;;;;;;;5.93;4.38;;;13.10;84.80;;;;;;4862941;29;20064;-87
2021/10/02 01:14:36;;;;;;;4.95;4.00;;;13.10;85.10;;;;;;4861561;29;20025;-86
2021/10/02 01:17:08;;;;;;;4.95;4.10;;;13.10;85.30;;;;;;4861118;29;20124;-87
2021/10/02 01:19:49;;;;;;;8.45;4.43;;;13.10;85.20;;;;;;4862455;29;20172;-86
2021/10/02 01:22:25;;;;;;;7.03;4.25;;;13.00;85.40;;;;;;4862899;29;20034;-87
2021/10/02 01:24:59;;;;;;;8.10;4.05;;;13.00;85.40;;;;;;4861849;29;20037;-87
2021/10/02 01:27:51;;;;;;;7.60;4.45;;;13.00;85.40;;;;;;4862077;29;20030;-86
2021/10/02 01:30:53;;;;;;;5.43;4.15;;;13.00;85.60;;;;;;4873070;29;20033;-85
2021/10/02 01:33:51;;;;;;;6.55;4.43;;;13.00;85.40;;;;;;4862711;29;20070;-87
2021/10/02 01:36:31;;;;;;;6.18;4.20;;;13.00;85.40;;;;;;4855649;29;20033;-86
2021/10/02 01:47:24;;;;;;;6.45;4.55;;;13.00;86.20;;;;;;4862276;29;20400;-85
2021/10/02 01:49:56;;;;;;;6.40;4.40;;;13.00;85.70;;;;;;4868592;29;20037;-86
2021/10/02 01:52:25;;;;;;;7.20;4.60;;;13.00;86.00;;;;;;4859202;29;20038;-84
2021/10/02 01:54:56;;;;;;;6.00;4.68;;;13.00;86.00;;;;;;4857853;29;20101;-86
2021/10/02 01:57:28;;;;;;;7.50;5.10;;;13.00;86.00;;;;;;4859308;29;20029;-87
2021/10/02 02:00:01;;;;;;;7.75;4.72;;;13.00;86.20;;;;;;4861612;29;20090;-86
2021/10/02 02:02:31;;;;;;;8.38;5.15;;;13.00;86.30;;;;;;4860680;29;20447;-86
2021/10/02 02:04:59;;;;;;;7.15;4.43;;;12.90;86.20;;;;;;4858560;29;20044;-87
2021/10/02 02:07:27;;;;;;;4.80;3.88;;;12.90;86.20;;;;;;4861315;29;20034;-86
2021/10/02 02:09:56;;;;;;;6.72;4.43;;;12.90;86.50;;;;;;4859272;29;20049;-86
2021/10/02 02:12:23;;;;;;;6.03;3.92;;;12.90;86.60;;;;;;4861845;29;20029;-85
2021/10/02 02:14:50;;;;;;;6.78;4.57;;;12.90;86.60;;;;;;4858998;29;20038;-87
2021/10/02 02:17:21;;;;;;;7.78;4.45;;;12.90;86.80;;;;;;4859214;29;20081;-84
2021/10/02 02:19:49;;;;;;;9.32;4.50;;;12.90;86.90;;;;;;4860016;29;20079;-84
2021/10/02 02:22:15;;;;;;;5.03;4.00;;;12.90;86.90;;;;;;4861230;29;20063;-84
2021/10/02 02:24:41;;;;;;;4.65;3.75;;;12.90;87.00;;;;;;4858819;29;20033;-85
2021/10/02 02:27:07;;;;;;;6.57;4.40;;;12.90;87.10;;;;;;4865448;29;20033;-84
2021/10/02 02:29:34;;;;;;;8.05;4.72;;;12.90;87.10;;;;;;4860935;29;20077;-85
2021/10/02 02:32:03;;;;;;;6.75;4.28;;;12.90;87.20;;;;;;4858591;29;20030;-86
2021/10/02 02:34:29;;;;;;;6.18;4.40;;;12.90;87.40;;;;;;4857609;29;20036;-84
2021/10/02 02:36:58;;;;;;;6.30;4.82;;;12.90;87.20;;;;;;4859406;29;20496;-85
2021/10/02 02:39:25;;;;;;;9.65;5.13;;;12.90;87.30;;;;;;4859400;29;20038;-87
2021/10/02 02:41:51;;;;;;;7.68;4.40;;;12.80;87.10;;;;;;4858780;29;20036;-85
2021/10/02 02:44:17;;;;;;;4.57;3.95;;;12.80;87.30;;;;;;4859698;29;20040;-85
2021/10/02 02:46:47;;;;;;;5.43;4.22;;;12.70;87.40;;;;;;4860301;29;20102;-85
2021/10/02 02:49:42;;;;;;;5.93;4.18;;;12.70;87.50;;;;;;4866105;29;20124;-87
2021/10/02 02:52:21;;;;;;;4.75;3.75;;;12.70;87.60;;;;;;4865391;29;20030;-83
2021/10/02 02:54:49;;;;;;;7.90;4.35;;;12.70;87.70;;;;;;4863897;29;20047;-88
2021/10/02 02:57:25;;;;;;;6.45;4.07;;;12.60;87.60;;;;;;4865726;29;20109;-85
2021/10/02 03:00:04;;;;;;;8.25;4.55;;;12.60;87.80;;;;;;4862783;29;20026;-87
2021/10/02 03:02:35;;;;;;;6.47;4.18;;;12.60;87.60;;;;;;4861492;29;20109;-86
2021/10/02 03:05:02;;;;;;;7.25;4.75;;;12.60;87.80;;;;;;4860948;29;20352;-85
2021/10/02 03:07:29;;;;;;;7.50;4.57;;;12.50;87.80;;;;;;4860890;29;20041;-85
2021/10/02 03:09:56;;;;;;;5.20;4.03;;;12.50;87.90;;;;;;4866519;29;20129;-86
2021/10/02 03:12:30;;;;;;;6.32;4.78;;;12.50;88.00;;;;;;4863537;29;20029;-85
2021/10/02 03:14:58;;;;;;;6.35;4.40;;;12.50;88.20;;;;;;4861903;29;20340;-86
2021/10/02 03:17:25;;;;;;;6.70;4.40;;;12.50;88.10;;;;;;4861055;29;20057;-88
2021/10/02 03:19:52;;;;;;;6.60;4.50;;;12.50;88.10;;;;;;4862619;29;20116;-86
2021/10/02 03:22:18;;;;;;;6.65;4.75;;;12.50;88.30;;;;;;4861484;29;20042;-84
2021/10/02 03:24:46;;;;;;;6.20;4.40;;;12.40;88.20;;;;;;4859848;29;20036;-85
2021/10/02 03:27:12;;;;;;;7.88;4.68;;;12.50;88.20;;;;;;4860556;29;20044;-87
2021/10/02 03:29:38;;;;;;;6.43;4.95;;;12.40;87.90;;;;;;4862550;29;20104;-87
2021/10/02 03:32:08;;;;;;;6.20;4.68;;;12.40;88.10;;;;;;4861013;29;20025;-87
2021/10/02 03:34:34;;;;;;;7.25;4.85;;;12.30;88.30;;;;;;4861537;29;20403;-87
2021/10/02 03:37:00;;;;;;;6.72;4.85;;;12.30;88.30;;;;;;4861360;29;20422;-85
2021/10/02 03:39:26;;;;;;;6.80;5.38;;;12.30;88.50;;;;;;4861999;29;20026;-87
2021/10/02 03:42:14;;;;;;;8.60;5.05;;;12.20;88.50;;;;;;4865491;29;20041;-87
2021/10/02 03:44:42;;;;;;;7.70;4.80;;;12.20;88.90;;;;;;4862911;29;20037;-87
2021/10/02 03:47:09;;;;;;;6.95;4.82;;;12.20;88.60;;;;;;4863474;29;20044;-87
2021/10/02 03:49:35;;;;;;;8.75;5.20;;;12.10;88.80;;;;;;4864409;29;20041;-87
2021/10/02 03:52:01;;;;;;;6.50;4.90;;;12.10;88.90;;;;;;4866035;29;20026;-85
2021/10/02 03:54:27;;;;;;;5.82;4.53;;;12.10;89.10;;;;;;4849189;29;20073;-86
2021/10/02 03:56:53;;;;;;;6.55;4.75;;;12.10;89.10;;;;;;4863812;29;20036;-86
2021/10/02 03:59:19;;;;;;;9.35;4.95;;;12.10;89.10;;;;;;4865824;29;20029;-85
2021/10/02 04:01:44;;;;;;;6.47;4.40;;;12.10;89.30;;;;;;4865341;29;20491;-87
2021/10/02 04:04:10;;;;;;;5.95;4.38;;;12.10;89.40;;;;;;4862529;29;20052;-87
2021/10/02 04:06:35;;;;;;;7.05;4.57;;;12.10;89.40;;;;;;4860233;29;20029;-87
2021/10/02 04:09:02;;;;;;;7.75;4.90;;;12.10;89.40;;;;;;4861302;29;20030;-85
2021/10/02 04:11:28;;;;;;;9.77;4.95;;;12.10;89.50;;;;;;4861444;29;20052;-85
2021/10/02 04:13:53;;;;;;;7.57;4.90;;;12.20;89.40;;;;;;4860949;29;20029;-87
2021/10/02 04:16:19;;;;;;;7.63;4.88;;;12.20;89.50;;;;;;4879738;29;20032;-85
2021/10/02 04:18:44;;;;;;;7.70;5.03;;;12.10;89.40;;;;;;4880977;29;20042;-84
2021/10/02 04:21:11;;;;;;;6.25;4.53;;;12.10;89.30;;;;;;4878376;29;20048;-84
2021/10/02 04:23:37;;;;;;;6.35;4.57;;;12.10;89.30;;;;;;4885671;29;20028;-86
2021/10/02 04:26:03;;;;;;;7.75;4.38;;;12.10;89.60;;;;;;4877949;29;20026;-85
2021/10/02 04:28:29;;;;;;;7.55;4.85;;;12.10;89.50;;;;;;4883121;29;20070;-83
2021/10/02 04:30:55;;;;;;;6.93;4.78;;;12.00;89.50;;;;;;4881371;29;20041;-84
2021/10/02 04:33:21;;;;;;;6.75;4.85;;;12.00;89.40;;;;;;4881350;29;20018;-84
2021/10/02 04:35:47;;;;;;;7.97;4.72;;;11.90;89.60;;;;;;4879721;29;20025;-84
2021/10/02 04:38:13;;;;;;;6.65;4.47;;;11.90;90.00;;;;;;4880892;29;20063;-84
2021/10/02 04:40:38;;;;;;;7.88;4.35;;;11.90;90.00;;;;;;4882189;29;20029;-85
2021/10/02 04:43:04;;;;;;;5.15;4.28;;;11.90;90.00;;;;;;4881597;29;20057;-83
2021/10/02 04:45:30;;;;;;;6.70;4.70;;;11.90;90.10;;;;;;4880875;29;20037;-84
2021/10/02 04:47:55;;;;;;;5.60;4.50;;;11.90;90.10;;;;;;4881069;29;20069;-85
2021/10/02 04:50:21;;;;;;;6.68;4.78;;;11.90;90.10;;;;;;4879764;29;20129;-84
2021/10/02 04:52:47;;;;;;;6.82;4.32;;;11.90;90.10;;;;;;4879615;29;20025;-83
2021/10/02 08:49:39;;;;;;;5.90;3.85;;;18.50;82.70;;;;;;4912294;29;20053;-90
2021/10/02 08:52:35;;;;;;;5.95;4.00;;;18.40;82.20;;;;;;4929729;29;20048;-91
2021/10/02 08:55:28;;;;;;;4.38;3.80;;;18.40;82.50;;;;;;4913607;29;20521;-91
2021/10/02 08:58:16;;;;;;;5.15;3.80;;;18.60;82.60;;;;;;4907849;29;20031;-92
2021/10/02 09:01:04;;;;;;;4.32;3.60;;;18.60;82.00;;;;;;4909244;29;20033;-94
2021/10/02 09:06:48;;;;;;;6.03;3.50;;;18.70;81.10;;;;;;4909701;29;20032;-94
2021/10/02 09:13:34;;;;;;;4.88;3.30;;;18.60;80.60;;;;;;4887887;29;20090;-94
2021/10/02 10:02:36;;;;;;;1.55;1.38;;;19.70;72.30;;;;;;4879463;29;20045;-88
2021/10/02 10:05:02;;;;;;;4.43;1.30;;;19.80;71.90;;;;;;4898629;29;20018;-87
2021/10/02 10:07:28;;;;;;;1.90;1.30;;;19.90;71.90;;;;;;4899354;29;20025;-86
2021/10/02 10:10:13;;;;;;;2.53;1.20;;;20.10;71.70;;;;;;4915322;29;20044;-88
2021/10/02 10:12:41;;;;;;;1.58;1.10;;;20.20;70.20;;;;;;4897425;29;20069;-88
2021/10/02 10:15:25;;;;;;;1.60;1.40;;;20.30;70.20;;;;;;4885152;29;20041;-89
2021/10/02 10:17:51;;;;;;;3.63;1.23;;;20.40;69.30;;;;;;4875956;29;20029;-88
2021/10/02 10:20:18;;;;;;;1.95;1.00;;;20.40;69.50;;;;;;4866943;29;20112;-88
2021/10/02 10:22:44;;;;;;;2.92;1.42;;;20.50;69.30;;;;;;4887577;29;20413;-88
2021/10/02 10:25:11;;;;;;;1.15;1.05;;;20.50;68.50;;;;;;4869917;29;20040;-88
2021/10/02 10:27:42;;;;;;;3.90;1.20;;;20.60;68.70;;;;;;4870182;29;20044;-88
2021/10/02 10:30:09;;;;;;;1.33;1.23;;;20.70;68.60;;;;;;4874602;29;20048;-88
2021/10/02 10:32:36;;;;;;;2.08;1.30;;;20.80;67.80;;;;;;4871458;29;20818;-88
2021/10/02 10:35:04;;;;;;;1.27;1.13;;;20.80;66.90;;;;;;4871270;29;20085;-87
2021/10/02 10:37:30;;;;;;;1.35;1.23;;;20.70;65.80;;;;;;4873083;29;20626;-88
2021/10/02 10:39:58;;;;;;;1.95;1.30;;;20.60;65.50;;;;;;4881904;29;20021;-88
2021/10/02 10:42:29;;;;;;;1.77;1.17;;;20.60;65.70;;;;;;4872761;29;20259;-88
2021/10/02 10:44:56;;;;;;;1.88;1.40;;;20.60;65.90;;;;;;4881560;29;20037;-88
2021/10/02 10:47:23;;;;;;;7.90;1.58;;;20.70;65.80;;;;;;4874247;29;20033;-89
2021/10/02 10:49:49;;;;;;;4.32;2.10;;;20.70;65.00;;;;;;4874553;29;20034;-89
2021/10/02 10:52:16;;;;;;;1.38;1.27;;;20.70;64.80;;;;;;4876379;29;20127;-89
2021/10/02 10:54:43;;;;;;;2.85;1.33;;;20.70;64.70;;;;;;4874651;29;20024;-88
2021/10/02 10:57:31;;;;;;;3.28;1.60;;;20.80;64.30;;;;;;4878138;29;20033;-88
2021/10/02 10:59:57;;;;;;;1.83;1.40;;;20.80;64.00;;;;;;4885475;29;20085;-88
2021/10/02 11:02:42;;;;;;;3.53;1.77;;;20.90;64.20;;;;;;4937295;23;20104;-89
2021/10/02 11:05:49;;;;;;;;;;;;;;;;;;;;;
2021/10/02 11:08:23;;;;;;;1.25;1.15;;;21.10;63.70;;;;;;4832132;29;20042;-89
2021/10/02 11:11:21;;;;;;;1.88;1.63;;;21.20;63.60;;;;;;4832533;29;20178;-88
2021/10/02 11:14:04;;;;;;;2.03;1.50;;;21.30;63.60;;;;;;4834097;29;20070;-89
2021/10/02 11:19:49;;;;;;;2.50;1.67;;;21.60;63.40;;;;;;4827765;29;20034;-88
2021/10/02 11:29:02;;;;;;;2.70;1.80;;;21.80;62.70;;;;;;4833399;29;20038;-88
2021/10/02 11:32:16;;;;;;;;;;;;;;;;;;;;;
2021/10/02 11:35:40;;;;;;;4.47;1.90;;;22.10;62.70;;;;;;4840436;29;20038;-89
2021/10/02 11:38:07;;;;;;;5.97;2.35;;;22.20;63.00;;;;;;4809576;29;20035;-89
2021/10/02 11:40:46;;;;;;;3.50;1.60;;;22.40;62.70;;;;;;4814451;29;20039;-87
2021/10/02 11:43:11;;;;;;;4.68;2.05;;;22.50;62.00;;;;;;4838097;29;20113;-87
2021/10/02 11:45:38;;;;;;;2.70;1.90;;;22.60;62.40;;;;;;4853445;29;20121;-87
2021/10/02 11:48:31;;;;;;;2.80;1.88;;;22.70;62.40;;;;;;4837794;29;20498;-88
2021/10/02 11:51:19;;;;;;;2.50;2.20;;;22.90;62.10;;;;;;4835134;29;20066;-89
2021/10/02 11:54:07;;;;;;;1.88;1.70;;;22.90;61.10;;;;;;4844170;29;20073;-89
2021/10/02 11:56:43;;;;;;;5.50;1.92;;;23.00;61.60;;;;;;4833377;29;20069;-87
2021/10/02 11:59:12;;;;;;;4.22;2.03;;;23.10;61.10;;;;;;4840155;29;20494;-88
2021/10/02 12:01:42;;;;;;;2.13;1.83;;;23.10;61.00;;;;;;4840167;29;20057;-88
2021/10/02 12:04:35;;;;;;;3.55;2.08;;;23.10;60.80;;;;;;4840287;29;20059;-88
2021/10/02 12:07:08;;;;;;;3.85;2.15;;;23.30;60.30;;;;;;4843106;29;20030;-88
2021/10/02 12:09:47;;;;;;;;;;;;;;;;;;;;;
2021/10/02 12:12:13;;;;;;;2.67;2.00;;;23.50;60.60;;;;;;4844460;29;20030;-88
2021/10/02 12:14:54;;;;;;;4.43;1.90;;;23.60;60.60;;;;;;4843766;29;20447;-87
2021/10/02 12:17:25;;;;;;;3.85;2.10;;;23.70;60.60;;;;;;4843843;29;20059;-88
2021/10/02 12:20:05;;;;;;;3.67;2.35;;;23.80;60.00;;;;;;4844280;29;20129;-88
2021/10/02 12:22:45;;;;;;;3.83;1.88;;;23.80;59.00;;;;;;4850630;29;20103;-89
2021/10/02 12:25:24;;;;;;;3.13;1.50;;;23.70;58.70;;;;;;4856096;29;20038;-86
2021/10/02 12:28:07;;;;;;;2.60;1.75;;;23.60;58.70;;;;;;4848487;29;20423;-89
2021/10/02 12:30:33;;;;;;;3.33;2.50;;;23.60;59.20;;;;;;4854277;29;20033;-88
2021/10/02 12:33:07;;;;;;;2.40;1.80;;;23.70;59.00;;;;;;4842649;29;20050;-88
2021/10/02 12:35:33;;;;;;;3.17;2.00;;;23.60;58.40;;;;;;4848586;29;20520;-88
2021/10/02 12:38:08;;;;;;;3.47;1.95;;;23.40;59.00;;;;;;4841210;29;20065;-88
2021/10/02 12:40:34;;;;;;;3.25;2.00;;;23.40;58.70;;;;;;4842127;29;20030;-86
2021/10/02 12:43:31;;;;;;;6.28;2.17;;;23.30;58.90;;;;;;4844634;29;20515;-90
2021/10/02 12:46:21;;;;;;;5.65;1.83;;;23.20;58.50;;;;;;4863461;29;20033;-87
2021/10/02 12:49:16;;;;;;;2.05;1.90;;;23.10;59.20;;;;;;4838515;29;20063;-88
2021/10/02 12:52:14;;;;;;;3.05;2.15;;;23.00;59.00;;;;;;4842375;29;20233;-87
2021/10/02 12:55:10;;;;;;;3.05;2.15;;;23.00;59.30;;;;;;4859023;29;20490;-90
2021/10/02 12:57:50;;;;;;;3.28;2.03;;;23.10;59.30;;;;;;4851513;29;20044;-88
2021/10/02 13:00:25;;;;;;;2.58;2.05;;;23.30;59.80;;;;;;4846092;29;20399;-91
2021/10/02 13:02:55;;;;;;;4.55;2.25;;;23.40;60.20;;;;;;4837716;29;20471;-88
2021/10/02 13:05:37;;;;;;;6.03;2.22;;;23.50;60.10;;;;;;4836170;29;20030;-89
2021/10/02 13:08:48;;;;;;;3.17;2.20;;;23.60;59.90;;;;;;4842626;29;20045;-89
2021/10/02 13:11:49;;;;;;;5.00;2.50;;;23.60;59.50;;;;;;4830803;29;20113;-89
2021/10/02 13:14:41;;;;;;;1.95;1.85;;;23.60;59.30;;;;;;4843358;29;20133;-88
2021/10/02 13:17:14;;;;;;;2.63;2.10;;;23.70;59.10;;;;;;4842206;29;20033;-87
2021/10/02 13:20:29;;;;;;;4.13;2.45;;;23.60;59.10;;;;;;4841882;29;20046;-88
2021/10/02 13:22:58;;;;;;;3.92;2.15;;;23.60;59.10;;;;;;4840662;29;20150;-89
2021/10/02 13:25:32;;;;;;;3.25;2.03;;;23.70;59.50;;;;;;4860800;29;20394;-88
2021/10/02 13:27:59;;;;;;;4.82;2.20;;;23.70;59.00;;;;;;4846329;29;20407;-88
2021/10/02 13:30:31;;;;;;;4.57;2.20;;;23.80;59.30;;;;;;4842267;29;20074;-88
2021/10/02 13:33:14;;;;;;;3.40;2.22;;;23.90;59.30;;;;;;4836455;29;20026;-89
2021/10/02 13:36:19;;;;;;;4.13;2.30;;;23.90;60.00;;;;;;4843845;29;20055;-89
2021/10/02 13:38:53;;;;;;;2.38;2.17;;;24.00;59.30;;;;;;4841989;29;20030;-89
2021/10/02 13:41:19;;;;;;;2.05;1.90;;;24.10;59.50;;;;;;4841631;29;20042;-88
2021/10/02 13:43:55;;;;;;;2.25;1.80;;;24.10;59.60;;;;;;4840849;29;20056;-88
2021/10/02 13:46:32;;;;;;;3.45;2.35;;;24.10;59.00;;;;;;4833402;29;20045;-88
2021/10/02 13:49:05;;;;;;;2.60;2.40;;;24.00;59.50;;;;;;4833225;29;20041;-88
2021/10/02 13:51:34;;;;;;;6.57;2.03;;;24.00;59.80;;;;;;4831694;29;20034;-88
2021/10/02 13:54:07;;;;;;;3.08;2.13;;;24.00;59.90;;;;;;4850227;29;20683;-88
2021/10/02 13:56:39;;;;;;;2.75;2.13;;;24.00;60.00;;;;;;4850281;29;20125;-88
2021/10/02 13:59:06;;;;;;;2.65;2.33;;;24.00;59.70;;;;;;4841256;29;20120;-87
2021/10/02 14:01:35;;;;;;;3.13;2.30;;;23.90;59.40;;;;;;4856953;29;20044;-88
2021/10/02 14:04:05;;;;;;;3.13;2.08;;;23.70;59.00;;;;;;4835941;29;20082;-88
2021/10/02 14:06:38;;;;;;;3.55;2.30;;;23.50;58.90;;;;;;4838918;29;20056;-88
2021/10/02 14:09:06;;;;;;;3.78;2.33;;;23.30;59.10;;;;;;4841499;29;20040;-88
2021/10/02 14:11:40;;;;;;;3.17;2.40;;;23.30;59.50;;;;;;4850838;29;20040;-88
2021/10/02 14:14:10;;;;;;;3.35;2.28;;;23.20;59.80;;;;;;4846597;29;20034;-88
2021/10/02 14:16:36;;;;;;;3.65;3.30;;;23.20;60.10;;;;;;4853810;29;20022;-88
2021/10/02 14:19:05;;;;;;;7.20;5.50;;;23.10;60.00;;;;;;4841294;29;20030;-88
2021/10/02 14:21:59;;;;;;;3.33;2.60;;;23.10;60.20;;;;;;4848649;29;20033;-88
2021/10/02 14:24:52;;;;;;;3.65;2.38;;;23.10;60.10;;;;;;4840930;29;20126;-88
2021/10/02 14:27:29;;;;;;;2.58;2.03;;;23.10;60.50;;;;;;4841081;29;20037;-88
2021/10/02 14:29:58;;;;;;;3.33;1.98;;;23.10;60.90;;;;;;4843216;29;20042;-88
2021/10/02 14:32:41;;;;;;;4.32;2.15;;;23.00;60.50;;;;;;4838582;29;20030;-88
2021/10/02 14:35:33;;;;;;;;;;;;;;;;;;;;;
2021/10/02 14:38:16;;;;;;;3.83;2.10;;;22.80;60.60;;;;;;4844385;29;20034;-89
2021/10/02 14:40:46;;;;;;;2.20;2.00;;;22.70;60.50;;;;;;4838092;29;20037;-88
2021/10/02 14:43:12;;;;;;;2.60;2.10;;;22.60;60.40;;;;;;4841057;29;20436;-88
2021/10/02 14:45:41;;;;;;;4.28;1.92;;;22.50;60.60;;;;;;4841183;29;20086;-88
2021/10/02 14:48:19;;;;;;;4.38;2.00;;;22.40;60.70;;;;;;4843049;29;20034;-88
2021/10/02 14:51:00;;;;;;;3.13;1.83;;;22.40;60.80;;;;;;4835871;29;20424;-88
2021/10/02 14:53:30;;;;;;;3.40;2.10;;;22.30;60.90;;;;;;4840978;29;20046;-88
2021/10/02 14:56:14;;;;;;;3.10;2.13;;;22.30;61.30;;;;;;4840684;29;20395;-88
2021/10/02 14:59:15;;;;;;;3.72;2.10;;;22.40;61.00;;;;;;4840408;29;20398;-88
2021/10/02 15:02:04;;;;;;;2.42;1.80;;;22.40;61.30;;;;;;4833962;29;20042;-88
2021/10/02 15:04:43;;;;;;;2.50;1.83;;;22.30;61.30;;;;;;4838819;29;20033;-88
2021/10/02 15:07:12;;;;;;;4.00;1.88;;;22.30;61.20;;;;;;4835244;29;20062;-87
2021/10/02 15:09:46;;;;;;;3.72;2.10;;;22.30;61.20;;;;;;4842113;29;20055;-89
2021/10/02 15:12:18;;;;;;;4.05;3.03;;;22.20;61.00;;;;;;4838305;29;20047;-89
2021/10/02 15:14:55;;;;;;;3.22;2.10;;;22.20;61.30;;;;;;4836785;29;20037;-88
2021/10/02 15:17:52;;;;;;;4.50;1.98;;;22.20;61.00;;;;;;4839516;29;20399;-88
2021/10/02 15:20:55;;;;;;;2.50;1.90;;;22.20;61.40;;;;;;4838905;29;20117;-88
2021/10/02 15:27:16;;;;;;;2.63;2.20;;;22.10;61.00;;;;;;4841357;29;20592;-88
2021/10/02 15:33:08;;;;;;;2.75;2.35;;;22.00;61.20;;;;;;4839845;29;20034;-88
2021/10/02 15:35:36;;;;;;;2.85;2.20;;;21.90;61.10;;;;;;4868265;29;20042;-87
2021/10/02 15:38:04;;;;;;;2.47;2.22;;;21.90;61.30;;;;;;4840657;29;20118;-87
2021/10/02 15:40:43;;;;;;;3.33;2.10;;;21.80;61.30;;;;;;4856431;29;20104;-87
2021/10/02 15:43:30;;;;;;;2.65;2.05;;;21.80;61.50;;;;;;4836313;29;20640;-89
2021/10/02 15:46:13;;;;;;;3.65;2.33;;;21.60;61.70;;;;;;4842763;29;20935;-88
2021/10/02 15:49:18;;;;;;;2.75;2.20;;;21.60;61.90;;;;;;4840439;29;20179;-88
2021/10/02 15:51:50;;;;;;;4.35;2.53;;;21.50;62.10;;;;;;4847710;29;20038;-87
2021/10/02 15:54:34;;;;;;;2.80;2.33;;;21.40;62.30;;;;;;4839027;29;20115;-88
2021/10/02 15:58:00;;;;;;;2.55;2.30;;;21.40;63.00;;;;;;4836602;29;20668;-87
2021/10/02 16:00:53;;;;;;;4.13;2.50;;;21.30;62.80;;;;;;4836452;29;20519;-88
2021/10/02 16:03:54;;;;;;;3.13;2.38;;;21.20;63.00;;;;;;4825915;29;20094;-87
2021/10/02 16:06:30;;;;;;;3.78;2.65;;;21.20;63.10;;;;;;4831367;29;20101;-88
2021/10/02 16:09:17;;;;;;;5.07;2.85;;;21.10;63.40;;;;;;4835654;29;20064;-88
2021/10/02 16:12:04;;;;;;;7.95;5.50;;;21.00;63.90;;;;;;4837599;29;20194;-88
2021/10/02 16:14:42;;;;;;;4.68;4.20;;;20.90;64.20;;;;;;4838514;29;20032;-87
2021/10/02 16:17:13;;;;;;;5.20;2.95;;;20.90;64.70;;;;;;4837579;29;20034;-86
2021/10/02 16:19:56;;;;;;;5.15;3.40;;;20.80;65.10;;;;;;4837631;29;20067;-86
2021/10/02 16:22:44;;;;;;;7.47;5.10;;;20.70;65.60;;;;;;4835454;29;20105;-87
2021/10/02 16:25:18;;;;;;;5.68;3.80;;;20.70;65.90;;;;;;4842357;29;20054;-88
2021/10/02 16:27:44;;;;;;;12.65;7.05;;;20.60;66.00;;;;;;4835824;29;20045;-87
2021/10/02 16:30:10;;;;;;;10.88;7.35;;;20.50;66.70;;;;;;4840531;29;20065;-87
2021/10/02 16:32:37;;;;;;;15.05;8.63;;;20.50;66.50;;;;;;4835120;29;20060;-83
2021/10/02 16:35:06;;;;;;;13.05;7.07;;;20.40;66.60;;;;;;4837244;29;20022;-83
2021/10/02 16:37:31;;;;;;;18.75;9.07;;;20.30;66.80;;;;;;4842116;29;20056;-84
2021/10/02 16:39:57;;;;;;;22.05;11.13;;;20.30;66.90;;;;;;4845013;29;20407;-84
2021/10/02 16:42:23;;;;;;;7.15;5.07;;;20.20;67.10;;;;;;4845090;29;20045;-84
2021/10/02 16:44:48;;;;;;;7.30;3.88;;;20.10;67.20;;;;;;4846074;29;20407;-84
2021/10/02 16:47:14;;;;;;;6.65;3.70;;;20.10;67.40;;;;;;4847214;29;20461;-84
2021/10/02 16:49:40;;;;;;;5.47;3.70;;;20.00;67.60;;;;;;4847754;29;20058;-84
2021/10/02 16:52:08;;;;;;;3.83;3.17;;;20.00;67.70;;;;;;4849627;29;20040;-84
2021/10/02 16:54:36;;;;;;;7.32;3.45;;;20.00;67.70;;;;;;4846897;29;20078;-83
2021/10/02 16:57:02;;;;;;;6.75;3.28;;;19.90;67.80;;;;;;4864535;29;20022;-84
2021/10/02 16:59:28;;;;;;;5.05;3.13;;;19.90;68.00;;;;;;4864484;29;20040;-83
2021/10/02 17:01:54;;;;;;;4.47;3.15;;;19.80;68.10;;;;;;4871473;23;20053;-87
2021/10/02 17:04:20;;;;;;;4.35;3.00;;;19.80;68.30;;;;;;4869641;29;20024;-87
2021/10/02 17:06:45;;;;;;;5.47;3.50;;;19.70;68.50;;;;;;4877959;29;20025;-86
2021/10/02 17:09:11;;;;;;;6.18;3.88;;;19.70;68.60;;;;;;4863047;29;20058;-87
2021/10/02 17:11:37;;;;;;;7.30;5.00;;;19.70;68.80;;;;;;4863489;29;20033;-87
2021/10/02 17:14:03;;;;;;;5.45;3.60;;;19.60;69.00;;;;;;4863383;29;20112;-87
2021/10/02 17:16:31;;;;;;;3.10;2.58;;;19.60;69.00;;;;;;4862329;29;20053;-87
2021/10/02 17:18:57;;;;;;;5.28;2.67;;;19.50;69.10;;;;;;4862583;29;20507;-87
2021/10/02 17:21:23;;;;;;;6.18;2.97;;;19.50;69.30;;;;;;4862715;29;20113;-87
2021/10/02 17:23:48;;;;;;;5.03;2.92;;;19.40;69.30;;;;;;4861434;29;20030;-87
2021/10/02 17:26:14;;;;;;;3.53;3.20;;;19.40;69.30;;;;;;4863519;29;20391;-87
2021/10/02 17:28:39;;;;;;;4.45;3.00;;;19.40;69.40;;;;;;4862659;29;20033;-87
2021/10/02 17:31:05;;;;;;;3.88;3.03;;;19.30;69.60;;;;;;4860722;29;20029;-87
2021/10/02 17:33:31;;;;;;;5.32;2.78;;;19.30;69.80;;;;;;4876294;29;20034;-87
2021/10/02 17:35:57;;;;;;;4.18;2.80;;;19.20;70.10;;;;;;4846412;29;20056;-87
2021/10/02 17:38:22;;;;;;;5.25;2.65;;;19.20;70.20;;;;;;4843608;29;20030;-87
2021/10/02 17:40:48;;;;;;;6.28;2.67;;;19.20;70.40;;;;;;4852181;29;20030;-87
2021/10/02 17:43:14;;;;;;;5.07;2.88;;;19.20;70.60;;;;;;4861637;29;20037;-88
2021/10/02 17:45:39;;;;;;;3.63;2.75;;;19.20;70.60;;;;;;4860811;29;20030;-86
2021/10/02 17:48:06;;;;;;;5.88;3.05;;;19.20;70.70;;;;;;4861751;29;20029;-87
2021/10/02 17:50:35;;;;;;;4.28;2.60;;;19.20;70.80;;;;;;4861246;29;20040;-87
2021/10/02 17:53:03;;;;;;;4.90;2.88;;;19.10;70.90;;;;;;4861619;29;20040;-87
2021/10/02 17:55:29;;;;;;;4.15;2.72;;;19.10;71.10;;;;;;4862841;29;20048;-87
2021/10/02 17:57:55;;;;;;;5.22;2.55;;;19.00;71.00;;;;;;4860511;29;20109;-87
2021/10/02 18:00:25;;;;;;;5.35;2.75;;;19.00;71.20;;;;;;4861861;29;20033;-87
2021/10/02 18:02:51;;;;;;;4.05;2.72;;;19.00;71.40;;;;;;4861248;29;20033;-87
2021/10/02 18:05:18;;;;;;;3.53;2.92;;;19.00;71.40;;;;;;4854599;29;20061;-86
2021/10/02 18:07:44;;;;;;;3.28;2.80;;;19.00;71.50;;;;;;4862586;29;20448;-87
2021/10/02 18:10:12;;;;;;;4.72;3.13;;;19.00;71.60;;;;;;4861631;29;20033;-87
2021/10/02 18:12:38;;;;;;;4.65;2.88;;;19.00;71.60;;;;;;4862286;29;20116;-87
2021/10/02 18:15:06;;;;;;;6.30;2.78;;;18.90;71.50;;;;;;4859633;29;20033;-87
2021/10/02 18:17:32;;;;;;;3.47;3.08;;;18.90;71.60;;;;;;4844372;29;20518;-86
2021/10/02 18:19:58;;;;;;;5.65;3.10;;;18.90;71.90;;;;;;4842982;29;20121;-87
2021/10/02 18:22:26;;;;;;;5.45;3.55;;;18.90;72.00;;;;;;4859623;29;20033;-87
2021/10/02 18:24:52;;;;;;;4.13;3.60;;;18.90;72.20;;;;;;4859298;29;20045;-87
2021/10/02 18:27:30;;;;;;;4.32;3.10;;;18.90;72.20;;;;;;4844148;29;20030;-86
2021/10/02 18:29:56;;;;;;;3.53;3.00;;;18.90;72.20;;;;;;4850197;29;20050;-87
2021/10/02 18:32:23;;;;;;;5.57;2.97;;;18.80;72.10;;;;;;4877032;29;20033;-88
2021/10/02 18:34:50;;;;;;;4.00;2.92;;;18.80;72.40;;;;;;4853082;29;20029;-88
2021/10/02 18:37:16;;;;;;;5.80;3.17;;;18.80;72.40;;;;;;4843277;29;20030;-89
2021/10/02 18:39:42;;;;;;;5.53;2.72;;;18.80;72.60;;;;;;4861033;29;20085;-88
2021/10/02 18:42:08;;;;;;;4.10;3.00;;;18.80;72.60;;;;;;4841892;29;20025;-88
2021/10/02 18:44:33;;;;;;;3.25;2.60;;;18.80;72.60;;;;;;4840978;29;20034;-88
2021/10/02 18:46:59;;;;;;;5.65;3.10;;;18.80;72.60;;;;;;4842434;29;20030;-88
2021/10/02 18:49:24;;;;;;;3.53;2.85;;;18.70;72.50;;;;;;4841180;29;20117;-88
2021/10/02 18:51:50;;;;;;;3.22;2.92;;;18.70;73.10;;;;;;4853851;29;20045;-88
2021/10/02 18:54:21;;;;;;;3.53;2.83;;;18.70;72.70;;;;;;4862953;29;20025;-88
2021/10/02 18:56:49;;;;;;;4.45;3.15;;;18.70;72.70;;;;;;4854609;29;20060;-88
2021/10/02 18:59:15;;;;;;;6.97;2.88;;;18.60;72.60;;;;;;4857481;29;20025;-88
2021/10/02 19:01:41;;;;;;;3.63;3.10;;;18.60;72.60;;;;;;4860689;29;20065;-88
2021/10/02 19:04:07;;;;;;;4.38;2.63;;;18.60;72.80;;;;;;4859752;29;20025;-88
2021/10/02 19:06:35;;;;;;;4.85;2.92;;;18.60;72.90;;;;;;4860220;29;20040;-87
2021/10/02 19:09:01;;;;;;;4.65;3.03;;;18.60;73.00;;;;;;4860278;29;20089;-88
2021/10/02 19:11:26;;;;;;;5.55;2.75;;;18.50;72.80;;;;;;4847579;29;20038;-88
2021/10/02 19:13:52;;;;;;;6.30;2.72;;;18.50;73.00;;;;;;4856602;29;20377;-88
2021/10/02 19:16:18;;;;;;;3.83;2.92;;;18.50;73.00;;;;;;4854658;29;20040;-88
2021/10/02 19:18:44;;;;;;;2.88;2.63;;;18.50;72.90;;;;;;4862627;29;20074;-88